Time;durP1;ratioP1;P1;durP2;ratioP2;P2;SDS_P1;SDS_P2;PMS_P1;PMS_P2;Temp;Humidity;BMP_temperature;BMP_pressure;BME280_temperature;BME280_humidity;BME280_pressure;Samples;Min_cycle;Max_cycle;Signal;HPM_P1;HPM_P2
2022/07/17 00:00:07;;;;;;;;;;;28.50;41.80;;;;;;702807;28;829;-86
2022/07/17 00:00:28;;;;;;;;;;;;;;;;;;699655;28;1387;-83
2022/07/17 00:00:49;;;;;;;;;;;28.50;41.30;;;;;;698836;28;945;-83
2022/07/17 00:01:09;;;;;;;;;;;28.50;41.60;;;;;;696575;28;872;-86
2022/07/17 00:01:30;;;;;;;;;;;28.50;41.50;;;;;;694680;28;1423;-85
2022/07/17 00:01:50;;;;;;;;;;;28.50;41.30;;;;;;691778;28;1040;-85
2022/07/17 00:02:11;;;;;;;;;;;;;;;;;;694562;28;1326;-86
2022/07/17 00:02:32;;;;;;;;;;;28.50;41.20;;;;;;694702;28;1405;-85
2022/07/17 00:02:52;;;;;;;;;;;28.50;41.20;;;;;;693849;28;1227;-84
2022/07/17 00:03:14;;;;;;;;;;;28.50;41.60;;;;;;690818;28;1693;-85
2022/07/17 00:03:35;;;;;;;;;;;;;;;;;;692242;28;1352;-84
2022/07/17 00:03:56;;;;;;;;;;;28.50;41.20;;;;;;695089;28;1191;-85
2022/07/17 00:04:16;;;;;;;;;;;28.50;41.40;;;;;;696478;28;1383;-85
2022/07/17 00:04:37;;;;;;;;;;;28.50;41.30;;;;;;696989;28;802;-85
2022/07/17 00:04:58;;;;;;;;;;;;;;;;;;699808;28;920;-86
2022/07/17 00:05:18;;;;;;;;;;;28.50;41.10;;;;;;702115;28;853;-86
2022/07/17 00:05:39;;;;;;;;;;;28.50;41.50;;;;;;702017;28;794;-84
2022/07/17 00:05:59;;;;;;;;;;;28.50;41.40;;;;;;701335;28;1034;-86
2022/07/17 00:06:20;;;;;;;;;;;;;;;;;;699129;28;1592;-88
2022/07/17 00:06:41;;;;;;;;;;;;;;;;;;702003;28;1560;-86
2022/07/17 00:07:02;;;;;;;;;;;28.40;41.40;;;;;;701995;28;909;-87
2022/07/17 00:07:22;;;;;;;;;;;28.40;41.40;;;;;;702014;28;1018;-85
2022/07/17 00:07:43;;;;;;;;;;;28.40;41.90;;;;;;701576;28;1902;-86
2022/07/17 00:08:06;;;;;;;;;;;28.50;42.30;;;;;;699350;28;1388;-85
2022/07/17 00:08:26;;;;;;;;;;;28.40;42.00;;;;;;698661;28;1244;-86
2022/07/17 00:08:47;;;;;;;;;;;28.40;41.40;;;;;;696592;28;798;-85
2022/07/17 00:09:07;;;;;;;;;;;28.40;42.20;;;;;;699232;28;794;-83
2022/07/17 00:09:28;;;;;;;;;;;;;;;;;;699114;28;1241;-83
2022/07/17 00:09:49;;;;;;;;;;;;;;;;;;700599;28;1355;-82
2022/07/17 00:10:10;;;;;;;;;;;28.40;41.30;;;;;;704351;28;1455;-85
2022/07/17 00:10:31;;;;;;;;;;;28.40;41.30;;;;;;704874;28;793;-87
2022/07/17 00:10:51;;;;;;;;;;;28.50;41.90;;;;;;704480;28;829;-84
2022/07/17 00:11:12;;;;;;;;;;;28.40;41.50;;;;;;702660;28;825;-84
2022/07/17 00:11:33;;;;;;;;;;;28.40;41.30;;;;;;704984;28;836;-88
2022/07/17 00:11:53;;;;;;;;;;;28.40;41.10;;;;;;703973;28;1394;-86
2022/07/17 00:12:14;;;;;;;;;;;28.40;41.10;;;;;;702202;28;901;-89
2022/07/17 00:12:35;;;;;;;;;;;28.40;41.10;;;;;;702219;28;789;-89
2022/07/17 00:12:56;;;;;;;;;;;28.40;41.10;;;;;;702173;28;873;-85
2022/07/17 00:13:16;;;;;;;;;;;28.40;41.10;;;;;;702145;28;1211;-88
2022/07/17 00:13:37;;;;;;;;;;;28.40;41.10;;;;;;701879;28;856;-87
2022/07/17 00:13:57;;;;;;;;;;;28.40;41.30;;;;;;698724;28;1379;-83
2022/07/17 00:14:18;;;;;;;;;;;28.40;41.40;;;;;;698129;28;1344;-89
2022/07/17 00:14:39;;;;;;;;;;;;;;;;;;697799;28;1292;-87
2022/07/17 00:14:59;;;;;;;;;;;28.40;41.20;;;;;;697785;28;1331;-87
2022/07/17 00:15:20;;;;;;;;;;;28.40;42.20;;;;;;698626;28;1229;-87
2022/07/17 00:15:41;;;;;;;;;;;;;;;;;;699637;28;1435;-85
2022/07/17 00:16:01;;;;;;;;;;;28.40;41.30;;;;;;699988;28;676;-82
2022/07/17 00:16:22;;;;;;;;;;;28.40;41.40;;;;;;705436;28;1365;-88
2022/07/17 00:16:43;;;;;;;;;;;;;;;;;;705475;28;887;-82
2022/07/17 00:17:05;;;;;;;;;;;28.40;41.10;;;;;;703143;28;1393;-89
2022/07/17 00:17:25;;;;;;;;;;;28.40;41.00;;;;;;704118;28;1329;-86
2022/07/17 00:17:46;;;;;;;;;;;28.40;41.00;;;;;;703805;28;1343;-83
2022/07/17 00:18:07;;;;;;;;;;;28.40;41.00;;;;;;704868;28;1036;-80
2022/07/17 00:18:27;;;;;;;;;;;28.40;41.20;;;;;;700191;28;1410;-86
2022/07/17 00:18:48;;;;;;;;;;;28.40;41.20;;;;;;699534;28;901;-87
2022/07/17 00:19:09;;;;;;;;;;;28.40;41.10;;;;;;697112;28;873;-80
2022/07/17 00:19:29;;;;;;;;;;;28.40;41.10;;;;;;702496;28;1449;-82
2022/07/17 00:19:50;;;;;;;;;;;28.40;41.40;;;;;;703760;28;1265;-89
2022/07/17 00:20:11;;;;;;;;;;;;;;;;;;702679;28;1309;-83
2022/07/17 00:20:32;;;;;;;;;;;28.40;41.10;;;;;;702572;28;1268;-88
2022/07/17 00:20:52;;;;;;;;;;;28.40;41.00;;;;;;702733;28;1051;-82
2022/07/17 00:21:13;;;;;;;;;;;28.40;41.10;;;;;;702068;28;825;-87
2022/07/17 00:21:33;;;;;;;;;;;28.40;41.00;;;;;;697378;28;1429;-82
2022/07/17 00:21:54;;;;;;;;;;;28.40;41.00;;;;;;698255;28;1225;-88
2022/07/17 00:22:15;;;;;;;;;;;28.40;41.10;;;;;;697873;28;1485;-88
2022/07/17 00:22:35;;;;;;;;;;;28.50;41.30;;;;;;698042;28;1281;-88
2022/07/17 00:22:56;;;;;;;;;;;28.40;41.10;;;;;;697656;28;1363;-89
2022/07/17 00:23:17;;;;;;;;;;;28.40;41.00;;;;;;703912;28;1300;-90
2022/07/17 00:23:37;;;;;;;;;;;28.40;41.00;;;;;;705524;28;880;-86
2022/07/17 00:23:58;;;;;;;;;;;28.50;41.10;;;;;;705384;28;825;-89
2022/07/17 00:24:21;;;;;;;;;;;28.40;41.10;;;;;;703864;28;1316;-90
2022/07/17 00:24:42;;;;;;;;;;;28.50;41.10;;;;;;705433;28;797;-82
2022/07/17 00:25:03;;;;;;;;;;;28.50;41.10;;;;;;702419;28;1449;-83
2022/07/17 00:25:24;;;;;;;;;;;28.50;41.10;;;;;;700012;28;1421;-88
2022/07/17 00:25:45;;;;;;;;;;;28.40;41.10;;;;;;698130;28;1427;-86
2022/07/17 00:26:05;;;;;;;;;;;28.50;41.00;;;;;;700374;28;1446;-81
2022/07/17 00:26:26;;;;;;;;;;;28.50;41.10;;;;;;701012;28;1410;-91
2022/07/17 00:26:47;;;;;;;;;;;28.50;41.10;;;;;;700468;28;1287;-90
2022/07/17 00:27:07;;;;;;;;;;;28.50;41.10;;;;;;701479;28;1280;-88
2022/07/17 00:27:28;;;;;;;;;;;28.50;41.10;;;;;;702272;28;1368;-82
2022/07/17 00:27:49;;;;;;;;;;;;;;;;;;700725;28;1967;-90
2022/07/17 00:28:09;;;;;;;;;;;28.50;41.00;;;;;;697271;28;913;-80
2022/07/17 00:28:30;;;;;;;;;;;28.50;41.00;;;;;;697407;28;881;-90
2022/07/17 00:28:51;;;;;;;;;;;;;;;;;;697229;28;854;-88
2022/07/17 00:29:11;;;;;;;;;;;28.50;41.10;;;;;;698878;28;1404;-81
2022/07/17 00:29:32;;;;;;;;;;;28.50;41.10;;;;;;699544;28;1466;-88
2022/07/17 00:29:52;;;;;;;;;;;28.50;41.00;;;;;;700124;28;975;-84
2022/07/17 00:30:13;;;;;;;;;;;28.50;41.00;;;;;;699970;28;475;-86
2022/07/17 00:30:34;;;;;;;;;;;28.50;41.00;;;;;;700150;28;794;-88
2022/07/17 00:30:54;;;;;;;;;;;28.50;41.00;;;;;;699976;28;896;-87
2022/07/17 00:31:15;;;;;;;;;;;28.50;40.90;;;;;;702581;28;1302;-87
2022/07/17 00:31:36;;;;;;;;;;;28.50;40.90;;;;;;702640;28;798;-88
2022/07/17 00:31:56;;;;;;;;;;;28.50;40.90;;;;;;702529;28;1383;-87
2022/07/17 00:32:19;;;;;;;;;;;28.50;40.90;;;;;;700964;28;1236;-88
2022/07/17 00:32:40;;;;;;;;;;;28.50;40.80;;;;;;701194;28;1429;-85
2022/07/17 00:33:01;;;;;;;;;;;;;;;;;;699143;28;861;-85
2022/07/17 00:33:22;;;;;;;;;;;;;;;;;;697309;28;1405;-85
2022/07/17 00:33:42;;;;;;;;;;;28.50;40.90;;;;;;697213;28;826;-86
2022/07/17 00:34:03;;;;;;;;;;;28.50;40.90;;;;;;697220;28;912;-84
2022/07/17 00:34:24;;;;;;;;;;;28.50;40.90;;;;;;697095;28;1459;-85
2022/07/17 00:34:44;;;;;;;;;;;28.50;40.80;;;;;;696664;28;1474;-82
2022/07/17 00:35:05;;;;;;;;;;;;;;;;;;696645;28;1418;-83
2022/07/17 00:35:26;;;;;;;;;;;28.50;40.80;;;;;;696844;28;1274;-80
2022/07/17 00:35:46;;;;;;;;;;;28.50;40.80;;;;;;697017;28;870;-80
2022/07/17 00:36:07;;;;;;;;;;;28.50;40.80;;;;;;696766;28;1375;-82
2022/07/17 00:36:28;;;;;;;;;;;28.50;40.80;;;;;;696840;28;1367;-85
2022/07/17 00:36:48;;;;;;;;;;;28.50;40.80;;;;;;694374;28;1385;-84
2022/07/17 00:37:09;;;;;;;;;;;;;;;;;;694022;28;1092;-88
2022/07/17 00:37:30;;;;;;;;;;;28.50;40.60;;;;;;691435;28;944;-85
2022/07/17 00:37:51;;;;;;;;;;;28.40;40.60;;;;;;691431;28;1481;-84
2022/07/17 00:38:13;;;;;;;;;;;28.50;40.60;;;;;;688984;28;1260;-85
2022/07/17 00:38:34;;;;;;;;;;;28.50;40.60;;;;;;689445;28;763;-84
2022/07/17 00:38:54;;;;;;;;;;;28.50;40.50;;;;;;688739;28;1589;-85
2022/07/17 00:39:15;;;;;;;;;;;28.50;40.60;;;;;;687078;28;1179;-84
2022/07/17 00:39:35;;;;;;;;;;;28.50;40.60;;;;;;688749;28;1185;-85
2022/07/17 00:39:56;;;;;;;;;;;28.50;40.60;;;;;;689123;28;819;-84
2022/07/17 00:40:17;;;;;;;;;;;;;;;;;;688690;28;1135;-85
2022/07/17 00:40:43;;;;;;;;;;;28.50;40.50;;;;;;686570;28;1465;-86
2022/07/17 00:41:04;;;;;;;;;;;28.50;40.60;;;;;;687140;28;1197;-86
2022/07/17 00:41:25;;;;;;;;;;;28.60;40.60;;;;;;688782;28;1297;-86
2022/07/17 00:41:45;;;;;;;;;;;28.50;40.60;;;;;;689796;28;1470;-87
2022/07/17 00:42:10;;;;;;;;;;;28.50;40.40;;;;;;691474;28;984;-87
2022/07/17 00:42:30;;;;;;;;;;;28.50;40.50;;;;;;693009;28;1196;-88
2022/07/17 00:42:51;;;;;;;;;;;;;;;;;;695213;28;877;-88
2022/07/17 00:43:12;;;;;;;;;;;28.50;40.50;;;;;;696967;28;790;-87
2022/07/17 00:43:32;;;;;;;;;;;28.60;40.60;;;;;;694113;28;905;-86
2022/07/17 00:43:53;;;;;;;;;;;28.60;40.60;;;;;;694178;28;1246;-87
2022/07/17 00:44:14;;;;;;;;;;;28.50;40.50;;;;;;691921;28;933;-85
2022/07/17 00:44:34;;;;;;;;;;;28.60;40.60;;;;;;691450;28;1533;-85
2022/07/17 00:44:56;;;;;;;;;;;28.60;40.60;;;;;;691530;28;1594;-84
2022/07/17 00:45:17;;;;;;;;;;;28.60;40.60;;;;;;691422;28;1223;-84
2022/07/17 00:45:37;;;;;;;;;;;28.60;40.60;;;;;;691438;28;1413;-85
2022/07/17 00:46:00;;;;;;;;;;;28.60;40.60;;;;;;689172;28;1143;-85
2022/07/17 00:46:21;;;;;;;;;;;;;;;;;;692089;28;834;-85
2022/07/17 00:46:41;;;;;;;;;;;28.60;40.50;;;;;;691479;28;835;-87
2022/07/17 00:47:02;;;;;;;;;;;28.60;40.60;;;;;;691484;28;1449;-84
2022/07/17 00:47:22;;;;;;;;;;;28.60;40.40;;;;;;691990;28;993;-85
2022/07/17 00:47:48;;;;;;;;;;;28.60;40.60;;;;;;694015;28;1898;-85
2022/07/17 00:48:10;;;;;;;;;;;28.60;40.50;;;;;;694206;28;1016;-85
2022/07/17 00:48:31;;;;;;;;;;;28.60;40.50;;;;;;694193;28;810;-86
2022/07/17 00:48:51;;;;;;;;;;;28.60;40.40;;;;;;695093;28;1362;-86
2022/07/17 00:49:12;;;;;;;;;;;28.60;40.40;;;;;;694030;28;1406;-87
2022/07/17 00:49:33;;;;;;;;;;;;;;;;;;691026;28;1726;-86
2022/07/17 00:49:53;;;;;;;;;;;28.60;40.50;;;;;;691419;28;807;-84
2022/07/17 00:50:14;;;;;;;;;;;28.60;40.50;;;;;;691187;28;1191;-86
2022/07/17 00:50:36;;;;;;;;;;;28.60;40.50;;;;;;691478;28;1163;-86
2022/07/17 00:50:57;;;;;;;;;;;28.60;40.40;;;;;;691541;28;1199;-86
2022/07/17 00:51:17;;;;;;;;;;;28.60;40.50;;;;;;694886;28;1291;-86
2022/07/17 00:51:38;;;;;;;;;;;28.60;40.50;;;;;;697014;28;862;-84
2022/07/17 00:51:58;;;;;;;;;;;28.60;40.50;;;;;;694085;28;1295;-87
2022/07/17 00:52:19;;;;;;;;;;;;;;;;;;691550;28;1493;-88
2022/07/17 00:52:40;;;;;;;;;;;28.60;40.60;;;;;;691852;28;1284;-88
2022/07/17 00:53:01;;;;;;;;;;;28.60;40.60;;;;;;691140;28;1180;-88
2022/07/17 00:53:21;;;;;;;;;;;;;;;;;;688692;28;1332;-86
2022/07/17 00:53:42;;;;;;;;;;;28.60;40.50;;;;;;689204;28;914;-87
2022/07/17 00:54:03;;;;;;;;;;;28.60;40.40;;;;;;691406;28;1287;-86
2022/07/17 00:54:24;;;;;;;;;;;28.60;41.30;;;;;;689037;28;958;-86
2022/07/17 00:54:46;;;;;;;;;;;28.60;40.60;;;;;;691515;28;909;-88
2022/07/17 00:55:07;;;;;;;;;;;28.60;40.60;;;;;;689470;28;1332;-89
2022/07/17 00:55:28;;;;;;;;;;;;;;;;;;691748;28;1239;-88
2022/07/17 00:55:49;;;;;;;;;;;;;;;;;;691555;28;890;-89
2022/07/17 00:56:10;;;;;;;;;;;28.60;40.30;;;;;;692123;28;1140;-89
2022/07/17 00:56:31;;;;;;;;;;;28.60;40.50;;;;;;694251;28;943;-87
2022/07/17 00:56:52;;;;;;;;;;;28.60;40.10;;;;;;696971;28;1246;-90
2022/07/17 00:57:14;;;;;;;;;;;28.60;40.00;;;;;;697590;28;779;-88
2022/07/17 00:57:35;;;;;;;;;;;;;;;;;;696957;28;1292;-87
2022/07/17 00:57:57;;;;;;;;;;;28.60;39.80;;;;;;697062;28;833;-89
2022/07/17 00:58:18;;;;;;;;;;;;;;;;;;696897;28;807;-86
2022/07/17 00:58:39;;;;;;;;;;;28.60;39.80;;;;;;698682;28;1250;-86
2022/07/17 00:59:00;;;;;;;;;;;28.60;39.90;;;;;;699960;28;1389;-85
2022/07/17 00:59:20;;;;;;;;;;;28.60;39.80;;;;;;700413;28;778;-88
2022/07/17 00:59:41;;;;;;;;;;;;;;;;;;699804;28;1544;-89
2022/07/17 01:00:08;;;;;;;;;;;28.60;39.50;;;;;;697486;28;1260;-89
2022/07/17 01:00:31;;;;;;;;;;;28.60;39.60;;;;;;696906;28;1252;-88
2022/07/17 01:00:53;;;;;;;;;;;28.60;39.60;;;;;;696528;28;1371;-87
2022/07/17 01:01:14;;;;;;;;;;;;;;;;;;695499;28;1333;-87
2022/07/17 01:01:34;;;;;;;;;;;28.60;39.70;;;;;;697086;28;1440;-91
2022/07/17 01:01:55;;;;;;;;;;;;;;;;;;696930;28;1288;-89
2022/07/17 01:02:16;;;;;;;;;;;28.50;39.40;;;;;;694839;28;1350;-87
2022/07/17 01:02:37;;;;;;;;;;;;;;;;;;696165;28;1360;-90
2022/07/17 01:02:58;;;;;;;;;;;28.60;39.40;;;;;;694860;28;1411;-89
2022/07/17 01:03:20;;;;;;;;;;;28.60;39.40;;;;;;694658;28;1293;-87
2022/07/17 01:03:40;;;;;;;;;;;28.60;39.40;;;;;;695895;28;1221;-90
2022/07/17 01:04:01;;;;;;;;;;;;;;;;;;696940;28;1351;-89
2022/07/17 01:04:22;;;;;;;;;;;28.60;39.50;;;;;;699457;28;1406;-90
2022/07/17 01:04:43;;;;;;;;;;;;;;;;;;697172;28;1236;-89
2022/07/17 01:05:04;;;;;;;;;;;28.60;39.50;;;;;;696461;28;782;-88
2022/07/17 01:05:25;;;;;;;;;;;;;;;;;;691893;28;1213;-89
2022/07/17 01:05:46;;;;;;;;;;;28.50;39.40;;;;;;694201;28;1195;-89
2022/07/17 01:06:06;;;;;;;;;;;28.50;39.40;;;;;;691117;28;1223;-88
2022/07/17 01:06:27;;;;;;;;;;;28.50;39.40;;;;;;688693;28;1340;-87
2022/07/17 01:06:47;;;;;;;;;;;28.50;39.40;;;;;;685665;28;1613;-87
2022/07/17 01:07:08;;;;;;;;;;;;;;;;;;686582;28;843;-88
2022/07/17 01:07:29;;;;;;;;;;;28.50;39.40;;;;;;689187;28;1174;-89
2022/07/17 01:07:51;;;;;;;;;;;28.50;39.40;;;;;;691917;28;1965;-86
2022/07/17 01:08:12;;;;;;;;;;;28.50;39.60;;;;;;694538;28;1503;-90
2022/07/17 01:08:32;;;;;;;;;;;28.50;39.50;;;;;;692029;28;1214;-87
2022/07/17 01:08:53;;;;;;;;;;;28.50;39.40;;;;;;694281;28;803;-86
2022/07/17 01:09:13;;;;;;;;;;;28.50;39.40;;;;;;694250;28;803;-87
2022/07/17 01:09:34;;;;;;;;;;;28.50;39.40;;;;;;694366;28;807;-89
2022/07/17 01:09:55;;;;;;;;;;;28.50;39.40;;;;;;694234;28;822;-91
2022/07/17 01:10:17;;;;;;;;;;;28.50;39.40;;;;;;691794;28;1498;-88
2022/07/17 01:10:38;;;;;;;;;;;;;;;;;;694133;28;1307;-87
2022/07/17 01:10:58;;;;;;;;;;;28.50;39.30;;;;;;694243;28;841;-84
2022/07/17 01:11:19;;;;;;;;;;;28.40;39.20;;;;;;694226;28;814;-91
2022/07/17 01:11:40;;;;;;;;;;;28.40;39.20;;;;;;694224;28;810;-90
2022/07/17 01:12:01;;;;;;;;;;;28.50;39.40;;;;;;694846;28;973;-91
2022/07/17 01:12:22;;;;;;;;;;;;;;;;;;694118;28;1396;-90
2022/07/17 01:12:42;;;;;;;;;;;28.40;39.30;;;;;;694112;28;1410;-88
2022/07/17 01:13:04;;;;;;;;;;;28.50;39.40;;;;;;693878;28;1470;-89
2022/07/17 01:13:25;;;;;;;;;;;28.40;39.30;;;;;;694357;28;841;-88
2022/07/17 01:13:46;;;;;;;;;;;28.40;39.20;;;;;;694207;28;1031;-92
2022/07/17 01:14:06;;;;;;;;;;;28.50;39.40;;;;;;694907;28;874;-92
2022/07/17 01:14:27;;;;;;;;;;;;;;;;;;694474;28;1480;-92
2022/07/17 01:14:48;;;;;;;;;;;28.40;39.20;;;;;;694171;28;506;-87
2022/07/17 01:15:09;;;;;;;;;;;28.40;39.20;;;;;;694166;28;878;-91
2022/07/17 01:15:31;;;;;;;;;;;28.40;39.20;;;;;;694306;28;830;-91
2022/07/17 01:15:51;;;;;;;;;;;28.40;39.40;;;;;;694185;28;929;-90
2022/07/17 01:16:12;;;;;;;;;;;;;;;;;;697200;28;1411;-91
2022/07/17 01:16:33;;;;;;;;;;;;;;;;;;703638;28;1318;-89
2022/07/17 01:16:54;;;;;;;;;;;28.40;39.30;;;;;;700227;28;1438;-92
2022/07/17 01:17:15;;;;;;;;;;;28.40;39.20;;;;;;702427;28;904;-90
2022/07/17 01:17:36;;;;;;;;;;;28.40;39.30;;;;;;700720;28;1370;-91
2022/07/17 01:17:56;;;;;;;;;;;28.40;39.20;;;;;;699749;28;838;-89
2022/07/17 01:18:17;;;;;;;;;;;28.40;39.20;;;;;;699193;28;947;-91
2022/07/17 01:18:38;;;;;;;;;;;28.40;39.30;;;;;;697988;28;1216;-89
2022/07/17 01:18:58;;;;;;;;;;;28.40;39.30;;;;;;697059;28;874;-92
2022/07/17 01:19:20;;;;;;;;;;;28.40;39.40;;;;;;696583;28;1240;-87
2022/07/17 01:19:40;;;;;;;;;;;28.40;39.30;;;;;;696940;28;1208;-90
2022/07/17 01:20:01;;;;;;;;;;;;;;;;;;696850;28;1377;-85
2022/07/17 01:20:22;;;;;;;;;;;28.40;39.30;;;;;;697005;28;826;-88
2022/07/17 01:20:43;;;;;;;;;;;;;;;;;;695545;28;1419;-89
2022/07/17 01:21:04;;;;;;;;;;;;;;;;;;698371;28;1710;-88
2022/07/17 01:21:24;;;;;;;;;;;28.40;39.30;;;;;;700492;28;1241;-89
2022/07/17 01:21:46;;;;;;;;;;;28.30;39.10;;;;;;700059;28;1415;-86
2022/07/17 01:22:06;;;;;;;;;;;28.40;39.40;;;;;;703646;28;1383;-86
2022/07/17 01:22:27;;;;;;;;;;;28.40;39.40;;;;;;701276;28;1284;-88
2022/07/17 01:22:50;;;;;;;;;;;28.40;39.20;;;;;;698663;28;1304;-88
2022/07/17 01:23:10;;;;;;;;;;;28.40;39.10;;;;;;694567;28;1450;-88
2022/07/17 01:23:31;;;;;;;;;;;;;;;;;;691616;28;1348;-84
2022/07/17 01:23:52;;;;;;;;;;;28.40;39.10;;;;;;693390;28;1289;-89
2022/07/17 01:24:13;;;;;;;;;;;28.40;39.10;;;;;;692143;28;819;-87
2022/07/17 01:24:33;;;;;;;;;;;28.30;39.20;;;;;;694886;28;669;-89
2022/07/17 01:24:54;;;;;;;;;;;;;;;;;;694003;28;1426;-88
2022/07/17 01:25:15;;;;;;;;;;;;;;;;;;695531;28;1301;-87
2022/07/17 01:25:36;;;;;;;;;;;28.30;39.20;;;;;;699673;28;877;-88
2022/07/17 01:25:56;;;;;;;;;;;28.30;39.10;;;;;;699520;28;1227;-87
2022/07/17 01:26:17;;;;;;;;;;;28.30;39.10;;;;;;699697;28;779;-87
2022/07/17 01:26:40;;;;;;;;;;;28.40;39.20;;;;;;699704;28;929;-87
2022/07/17 01:27:01;;;;;;;;;;;;;;;;;;699682;28;868;-85
2022/07/17 01:27:21;;;;;;;;;;;28.30;39.50;;;;;;699644;28;853;-85
2022/07/17 01:27:42;;;;;;;;;;;28.30;39.60;;;;;;697288;28;1960;-86
2022/07/17 01:28:03;;;;;;;;;;;28.30;39.30;;;;;;699620;28;856;-86
2022/07/17 01:28:25;;;;;;;;;;;;;;;;;;699696;28;794;-87
2022/07/17 01:28:45;;;;;;;;;;;28.30;39.20;;;;;;696809;28;1223;-83
2022/07/17 01:29:06;;;;;;;;;;;28.30;39.20;;;;;;693997;28;1193;-85
2022/07/17 01:29:26;;;;;;;;;;;28.30;39.10;;;;;;694568;28;1249;-86
2022/07/17 01:29:47;;;;;;;;;;;;;;;;;;696522;28;1181;-87
2022/07/17 01:30:08;;;;;;;;;;;28.30;39.00;;;;;;696829;28;1237;-90
2022/07/17 01:30:29;;;;;;;;;;;28.30;39.00;;;;;;697355;28;1213;-92
2022/07/17 01:30:51;;;;;;;;;;;28.30;39.00;;;;;;699458;28;1224;-87
2022/07/17 01:31:11;;;;;;;;;;;28.30;39.00;;;;;;696911;28;1473;-89
2022/07/17 01:31:32;;;;;;;;;;;28.30;39.30;;;;;;696917;28;936;-86
2022/07/17 01:31:53;;;;;;;;;;;28.30;39.30;;;;;;696850;28;1467;-88
2022/07/17 01:32:13;;;;;;;;;;;28.30;39.20;;;;;;696960;28;802;-88
2022/07/17 01:32:34;;;;;;;;;;;28.30;39.10;;;;;;698148;28;1297;-90
2022/07/17 01:32:55;;;;;;;;;;;28.30;39.10;;;;;;694610;28;805;-89
2022/07/17 01:33:16;;;;;;;;;;;28.30;39.10;;;;;;698690;28;1273;-90
2022/07/17 01:33:37;;;;;;;;;;;28.30;39.20;;;;;;705247;28;1401;-88
2022/07/17 01:33:58;;;;;;;;;;;28.30;39.30;;;;;;705297;28;840;-89
2022/07/17 01:34:19;;;;;;;;;;;28.30;39.30;;;;;;705177;28;965;-88
2022/07/17 01:34:40;;;;;;;;;;;28.30;39.10;;;;;;705389;28;793;-87
2022/07/17 01:35:01;;;;;;;;;;;28.30;39.20;;;;;;705341;28;1027;-92
2022/07/17 01:35:21;;;;;;;;;;;28.30;39.10;;;;;;702837;28;1442;-86
2022/07/17 01:35:42;;;;;;;;;;;28.30;39.10;;;;;;697290;28;1237;-87
2022/07/17 01:36:03;;;;;;;;;;;;;;;;;;703682;28;1434;-90
2022/07/17 01:36:24;;;;;;;;;;;28.30;39.20;;;;;;705229;28;1378;-87
2022/07/17 01:36:44;;;;;;;;;;;28.30;39.10;;;;;;703288;28;1469;-86
2022/07/17 01:37:05;;;;;;;;;;;28.30;39.30;;;;;;700711;28;1375;-89
2022/07/17 01:37:25;;;;;;;;;;;28.30;39.30;;;;;;697041;28;1332;-88
2022/07/17 01:37:46;;;;;;;;;;;28.30;39.20;;;;;;698721;28;1345;-91
2022/07/17 01:38:07;;;;;;;;;;;28.30;39.10;;;;;;696805;28;877;-88
2022/07/17 01:38:27;;;;;;;;;;;28.30;39.00;;;;;;699510;28;1478;-91
2022/07/17 01:38:48;;;;;;;;;;;28.30;39.10;;;;;;699977;28;913;-87
2022/07/17 01:39:09;;;;;;;;;;;28.30;39.10;;;;;;700257;28;1358;-91
2022/07/17 01:40:10;;;;;;;;;;;28.30;39.10;;;;;;699818;28;1058;-88
2022/07/17 01:40:30;;;;;;;;;;;28.30;39.10;;;;;;699561;28;1388;-91
2022/07/17 01:40:51;;;;;;;;;;;;;;;;;;699675;28;976;-86
2022/07/17 01:41:12;;;;;;;;;;;28.30;39.10;;;;;;699714;28;1289;-88
2022/07/17 01:41:32;;;;;;;;;;;28.30;39.20;;;;;;700587;28;1429;-88
2022/07/17 01:41:53;;;;;;;;;;;28.30;39.20;;;;;;700587;28;1213;-89
2022/07/17 01:42:13;;;;;;;;;;;28.20;39.10;;;;;;699675;28;1363;-88
2022/07/17 01:42:34;;;;;;;;;;;28.30;39.20;;;;;;699602;28;916;-88
2022/07/17 01:42:55;;;;;;;;;;;;;;;;;;701973;28;1314;-88
2022/07/17 01:43:15;;;;;;;;;;;28.30;39.20;;;;;;699305;28;1351;-91
2022/07/17 01:43:36;;;;;;;;;;;28.30;39.10;;;;;;698476;28;1379;-89
2022/07/17 01:43:57;;;;;;;;;;;28.20;39.10;;;;;;699155;28;1432;-91
2022/07/17 01:44:17;;;;;;;;;;;28.20;39.10;;;;;;694452;28;1362;-88
2022/07/17 01:44:38;;;;;;;;;;;28.20;39.30;;;;;;691134;28;1272;-85
2022/07/17 01:44:59;;;;;;;;;;;28.20;39.30;;;;;;689269;28;1380;-86
2022/07/17 01:45:20;;;;;;;;;;;;;;;;;;691413;28;1313;-84
2022/07/17 01:45:41;;;;;;;;;;;;;;;;;;688515;28;869;-86
2022/07/17 01:46:01;;;;;;;;;;;28.20;39.20;;;;;;688827;28;1424;-86
2022/07/17 01:46:22;;;;;;;;;;;;;;;;;;692452;28;1199;-88
2022/07/17 01:46:43;;;;;;;;;;;28.30;39.30;;;;;;694508;28;1301;-87
2022/07/17 01:47:04;;;;;;;;;;;28.30;39.20;;;;;;691677;28;1274;-86
2022/07/17 01:47:24;;;;;;;;;;;28.20;39.10;;;;;;692971;28;1520;-88
2022/07/17 01:47:45;;;;;;;;;;;;;;;;;;693205;28;1961;-87
2022/07/17 01:48:06;;;;;;;;;;;28.30;39.20;;;;;;691273;28;943;-88
2022/07/17 01:48:28;;;;;;;;;;;28.20;39.10;;;;;;691554;28;1411;-91
2022/07/17 01:48:49;;;;;;;;;;;28.30;39.10;;;;;;692855;28;1317;-88
2022/07/17 01:49:09;;;;;;;;;;;28.20;39.20;;;;;;695789;28;1233;-91
2022/07/17 01:49:30;;;;;;;;;;;28.30;39.10;;;;;;693964;28;1278;-89
2022/07/17 01:49:54;;;;;;;;;;;28.30;39.30;;;;;;695210;28;1455;-87
2022/07/17 01:50:15;;;;;;;;;;;;;;;;;;694864;28;1439;-87
2022/07/17 01:50:36;;;;;;;;;;;28.30;39.30;;;;;;693957;28;821;-86
2022/07/17 01:50:56;;;;;;;;;;;28.30;39.50;;;;;;693656;28;1242;-85
2022/07/17 01:51:17;;;;;;;;;;;;;;;;;;694493;28;1426;-87
2022/07/17 01:51:38;;;;;;;;;;;28.30;39.50;;;;;;696665;28;1442;-87
2022/07/17 01:52:01;;;;;;;;;;;28.30;39.70;;;;;;696813;28;810;-91
2022/07/17 01:52:23;;;;;;;;;;;28.30;39.50;;;;;;696927;28;858;-88
2022/07/17 01:52:44;;;;;;;;;;;28.30;39.20;;;;;;696765;28;1195;-89
2022/07/17 01:53:05;;;;;;;;;;;28.30;39.50;;;;;;694932;28;1434;-89
2022/07/17 01:53:25;;;;;;;;;;;28.30;39.20;;;;;;693887;28;1231;-85
2022/07/17 01:53:46;;;;;;;;;;;28.30;39.20;;;;;;691064;28;1214;-85
2022/07/17 01:54:06;;;;;;;;;;;28.30;39.80;;;;;;691157;28;1222;-86
2022/07/17 01:54:27;;;;;;;;;;;28.30;39.60;;;;;;693470;28;1479;-85
2022/07/17 01:54:48;;;;;;;;;;;28.30;39.30;;;;;;691133;28;1444;-86
2022/07/17 01:55:09;;;;;;;;;;;28.30;39.30;;;;;;690795;28;1506;-84
2022/07/17 01:55:30;;;;;;;;;;;28.30;39.40;;;;;;691108;28;1257;-87
2022/07/17 01:55:51;;;;;;;;;;;;;;;;;;692549;28;1577;-90
2022/07/17 01:56:11;;;;;;;;;;;28.30;39.80;;;;;;691365;28;1258;-88
2022/07/17 01:56:32;;;;;;;;;;;28.30;39.70;;;;;;690974;28;1470;-87
2022/07/17 01:56:53;;;;;;;;;;;28.30;39.40;;;;;;690183;28;1769;-89
2022/07/17 01:57:13;;;;;;;;;;;28.30;39.20;;;;;;693418;28;1513;-87
2022/07/17 01:57:34;;;;;;;;;;;;;;;;;;694947;28;1359;-88
2022/07/17 01:57:55;;;;;;;;;;;28.40;39.30;;;;;;691290;28;1415;-86
2022/07/17 01:58:16;;;;;;;;;;;28.30;39.30;;;;;;693168;28;1254;-89
2022/07/17 01:58:37;;;;;;;;;;;28.30;39.30;;;;;;692206;28;1225;-88
2022/07/17 01:58:58;;;;;;;;;;;28.40;39.30;;;;;;691263;28;886;-91
2022/07/17 01:59:19;;;;;;;;;;;28.40;39.40;;;;;;691620;28;886;-89
2022/07/17 01:59:40;;;;;;;;;;;28.30;39.30;;;;;;696697;28;1459;-85
2022/07/17 02:00:01;;;;;;;;;;;28.30;39.30;;;;;;699373;28;1355;-86
2022/07/17 02:00:24;;;;;;;;;;;;;;;;;;696936;28;1403;-88
2022/07/17 02:00:44;;;;;;;;;;;28.40;39.30;;;;;;697655;28;1504;-86
2022/07/17 02:01:05;;;;;;;;;;;28.30;39.20;;;;;;696683;28;1266;-87
2022/07/17 02:01:25;;;;;;;;;;;28.40;39.40;;;;;;696722;28;1219;-89
2022/07/17 02:01:46;;;;;;;;;;;28.30;39.20;;;;;;696027;28;771;-89
2022/07/17 02:02:07;;;;;;;;;;;;;;;;;;694070;28;960;-89
2022/07/17 02:02:28;;;;;;;;;;;;;;;;;;696718;28;1387;-88
2022/07/17 02:02:48;;;;;;;;;;;28.30;39.20;;;;;;696818;28;802;-91
2022/07/17 02:03:09;;;;;;;;;;;28.40;39.30;;;;;;694257;28;1313;-90
2022/07/17 02:03:30;;;;;;;;;;;;;;;;;;696185;28;1475;-89
2022/07/17 02:03:50;;;;;;;;;;;28.40;39.20;;;;;;693832;28;1393;-85
2022/07/17 02:04:11;;;;;;;;;;;;;;;;;;693708;28;763;-88
2022/07/17 02:04:33;;;;;;;;;;;28.30;39.20;;;;;;691234;28;966;-85
2022/07/17 02:04:53;;;;;;;;;;;28.40;39.20;;;;;;691769;28;1422;-89
2022/07/17 02:05:14;;;;;;;;;;;28.40;39.30;;;;;;693939;28;878;-89
2022/07/17 02:05:35;;;;;;;;;;;;;;;;;;694411;28;881;-88
2022/07/17 02:05:55;;;;;;;;;;;28.40;39.20;;;;;;696795;28;908;-90
2022/07/17 02:06:16;;;;;;;;;;;;;;;;;;696772;28;953;-90
2022/07/17 02:06:37;;;;;;;;;;;28.40;39.30;;;;;;696611;28;1218;-88
2022/07/17 02:06:57;;;;;;;;;;;28.40;39.20;;;;;;696784;28;858;-88
2022/07/17 02:07:18;;;;;;;;;;;28.40;39.30;;;;;;696697;28;1349;-86
2022/07/17 02:07:39;;;;;;;;;;;28.40;39.10;;;;;;696546;28;1189;-89
2022/07/17 02:08:00;;;;;;;;;;;28.40;39.20;;;;;;696536;28;1980;-85
2022/07/17 02:08:21;;;;;;;;;;;;;;;;;;696404;28;814;-89
2022/07/17 02:08:41;;;;;;;;;;;28.40;39.20;;;;;;696691;28;1184;-88
2022/07/17 02:09:02;;;;;;;;;;;28.40;39.20;;;;;;696758;28;849;-86
2022/07/17 02:09:23;;;;;;;;;;;28.40;39.20;;;;;;696832;28;1024;-90
2022/07/17 02:09:43;;;;;;;;;;;28.40;39.10;;;;;;697074;28;798;-88
2022/07/17 02:10:04;;;;;;;;;;;28.40;39.10;;;;;;699563;28;887;-91